createdAt,value
2023-03-02T07:19:09.590Z,2.72
2023-03-02T07:30:19.093Z,2.76
2023-03-02T07:41:31.900Z,2.78
2023-03-02T07:52:40.313Z,2.81
2023-03-02T08:03:50.818Z,2.83
2023-03-02T08:15:05.111Z,2.85
2023-03-02T08:25:49.838Z,2.89
2023-03-02T08:36:52.991Z,2.96
2023-03-02T08:47:55.918Z,2.98
2023-03-02T08:58:57.932Z,3.02
2023-03-02T09:09:59.327Z,3.09
2023-03-02T09:21:00.468Z,3.09
2023-03-02T09:32:02.529Z,3.14
2023-03-02T09:43:04.852Z,3.15
2023-03-02T09:54:07.108Z,3.15
2023-03-02T10:05:09.074Z,3.18
2023-03-02T10:16:05.982Z,3.15
2023-03-02T10:27:05.287Z,3.15
2023-03-02T10:38:02.833Z,3.14
2023-03-02T10:49:03.013Z,3.15
2023-03-02T11:00:04.432Z,3.23
2023-03-02T11:11:00.638Z,3.26
2023-03-02T11:22:02.062Z,3.27
2023-03-02T11:33:02.706Z,3.27
2023-03-02T11:44:00.990Z,3.24
2023-03-02T11:55:01.612Z,3.23
2023-03-02T12:06:04.557Z,3.24
2023-03-02T12:17:00.003Z,3.23
2023-03-02T12:27:56.780Z,3.25
2023-03-02T12:38:50.697Z,3.27
2023-03-02T12:49:28.380Z,3.29
2023-03-02T13:00:14.493Z,3.29
2023-03-02T13:10:50.244Z,3.33
2023-03-02T13:21:34.843Z,3.31
2023-03-02T13:32:35.156Z,3.29
2023-03-02T13:43:34.294Z,3.29
2023-03-02T13:54:24.721Z,3.30
2023-03-02T14:05:23.689Z,3.28
2023-03-02T14:15:58.608Z,3.26
2023-03-02T14:26:57.034Z,3.26
2023-03-02T14:37:54.357Z,3.27
2023-03-02T14:48:49.259Z,3.28
2023-03-02T14:59:43.829Z,3.26
2023-03-02T15:10:43.126Z,3.24
2023-03-02T15:21:40.622Z,3.22
2023-03-02T15:32:37.724Z,3.21
2023-03-02T15:43:38.732Z,3.20
2023-03-02T15:54:33.109Z,3.19
2023-03-02T16:16:15.519Z,3.15
2023-03-02T16:27:05.142Z,3.13
2023-03-02T16:37:56.849Z,3.11
2023-03-02T16:48:54.357Z,3.10
2023-03-02T17:10:50.196Z,3.07
2023-03-02T17:21:43.318Z,3.06
2023-03-02T17:32:20.881Z,3.04
2023-03-02T17:43:03.924Z,3.03
2023-03-02T17:53:59.321Z,3.02
2023-03-02T18:04:48.110Z,3.01
2023-03-02T18:15:35.319Z,3.00
2023-03-02T18:26:23.616Z,3.00
2023-03-02T18:37:11.850Z,2.99
2023-03-02T18:48:04.865Z,2.98
2023-03-02T19:09:51.508Z,2.97
2023-03-02T19:20:45.009Z,2.96
2023-03-02T19:31:32.814Z,2.96
2023-03-02T19:42:21.335Z,2.95
2023-03-02T19:53:16.904Z,2.95
2023-03-02T20:04:10.358Z,2.94
2023-03-02T20:15:09.054Z,2.94
2023-03-02T20:25:58.025Z,2.93
2023-03-02T20:36:58.074Z,2.92
2023-03-02T20:48:05.379Z,2.92
2023-03-02T20:59:06.632Z,2.91
2023-03-02T21:09:58.594Z,2.90
2023-03-02T21:20:49.150Z,2.90
2023-03-02T21:32:14.734Z,2.90
2023-03-02T21:43:23.162Z,2.89
2023-03-02T21:55:03.969Z,2.88
2023-03-02T22:06:03.272Z,2.88
